Time;durP1;ratioP1;P1;durP2;ratioP2;P2;SDS_P1;SDS_P2;PMS_P1;PMS_P2;Temp;Humidity;BMP_temperature;BMP_pressure;BME280_temperature;BME280_humidity;BME280_pressure;Samples;Min_cycle;Max_cycle;Signal;HPM_P1;HPM_P2
2022/04/10 00:02:10;;;;;;;;;45.25;38.50;;;;;;;;5120724;27;45303;-78
2022/04/10 00:04:35;;;;;;;;;42.50;36.00;;;;;;;;5101973;27;48378;-77
2022/04/10 00:07:00;;;;;;;;;39.75;37.25;;;;;;;;5120403;27;45519;-79
2022/04/10 00:09:26;;;;;;;;;40.00;38.25;;;;;;;;5102334;27;45254;-78
2022/04/10 00:11:51;;;;;;;;;40.00;36.25;;;;;;;;5120747;27;45317;-79
2022/04/10 00:14:16;;;;;;;;;41.75;38.00;;;;;;;;5101816;27;48345;-79
2022/04/10 00:16:41;;;;;;;;;41.50;38.25;;;;;;;;5120324;27;45251;-78
2022/04/10 00:19:06;;;;;;;;;42.75;37.75;;;;;;;;5120848;27;45178;-79
2022/04/10 00:21:32;;;;;;;;;45.25;39.00;;;;;;;;5101914;27;45876;-79
2022/04/10 00:23:57;;;;;;;;;40.25;38.00;;;;;;;;5120525;27;45402;-78
2022/04/10 00:26:22;;;;;;;;;35.25;35.00;;;;;;;;5101617;27;45293;-79
2022/04/10 00:28:48;;;;;;;;;36.50;33.25;;;;;;;;5120664;27;45668;-79
2022/04/10 00:31:13;;;;;;;;;35.25;34.50;;;;;;;;5101670;27;46988;-78
2022/04/10 00:33:39;;;;;;;;;37.50;35.00;;;;;;;;5104625;27;47180;-78
2022/04/10 00:36:04;;;;;;;;;34.50;30.75;;;;;;;;5105368;27;45211;-79
2022/04/10 00:38:29;;;;;;;;;43.00;38.50;;;;;;;;5105268;27;45389;-79
2022/04/10 00:40:54;;;;;;;;;37.25;35.50;;;;;;;;5105397;27;47215;-79
2022/04/10 00:43:20;;;;;;;;;57.75;48.00;;;;;;;;5123910;27;45347;-78
2022/04/10 00:45:45;;;;;;;;;55.75;46.75;;;;;;;;5105076;27;45891;-78
2022/04/10 00:48:10;;;;;;;;;44.50;40.00;;;;;;;;5123987;27;45279;-78
2022/04/10 00:50:36;;;;;;;;;48.25;41.25;;;;;;;;5105079;27;46498;-79
2022/04/10 00:53:01;;;;;;;;;40.00;36.75;;;;;;;;5123574;27;45466;-79
2022/04/10 00:55:26;;;;;;;;;44.75;37.00;;;;;;;;5104937;27;45329;-79
2022/04/10 00:57:51;;;;;;;;;44.50;40.25;;;;;;;;5123810;27;45350;-79
2022/04/10 01:00:17;;;;;;;;;46.75;41.25;;;;;;;;5123430;27;45420;-79
2022/04/10 01:02:43;;;;;;;;;42.75;38.00;;;;;;;;5123506;27;46101;-79
2022/04/10 01:05:08;;;;;;;;;44.75;39.25;;;;;;;;5123579;27;45301;-78
2022/04/10 01:07:33;;;;;;;;;48.25;38.00;;;;;;;;5123652;27;45623;-79
2022/04/10 01:09:58;;;;;;;;;47.00;41.25;;;;;;;;5123349;27;45527;-79
2022/04/10 01:12:24;;;;;;;;;41.00;36.25;;;;;;;;5123488;27;45410;-79
2022/04/10 01:14:50;;;;;;;;;41.75;36.50;;;;;;;;5122466;27;45282;-79
2022/04/10 01:17:16;;;;;;;;;41.00;36.75;;;;;;;;5104170;27;45375;-78
2022/04/10 01:19:42;;;;;;;;;36.75;36.25;;;;;;;;5103657;27;45887;-79
2022/04/10 01:22:08;;;;;;;;;47.50;38.25;;;;;;;;5103620;27;47200;-79
2022/04/10 01:24:34;;;;;;;;;38.25;34.75;;;;;;;;5122780;27;45231;-80
2022/04/10 01:26:59;;;;;;;;;35.75;35.50;;;;;;;;5123121;27;45190;-78
2022/04/10 01:29:26;;;;;;;;;41.25;39.00;;;;;;;;5122995;27;45254;-78
2022/04/10 01:31:52;;;;;;;;;38.75;36.25;;;;;;;;5104229;27;47183;-78
2022/04/10 01:34:18;;;;;;;;;37.50;35.75;;;;;;;;5122652;27;45249;-78
2022/04/10 01:36:44;;;;;;;;;58.00;46.50;;;;;;;;5122759;27;45312;-79
2022/04/10 01:39:11;;;;;;;;;47.75;42.00;;;;;;;;5122399;27;45302;-79
2022/04/10 01:41:36;;;;;;;;;44.75;40.25;;;;;;;;5104130;27;47113;-78
2022/04/10 01:44:02;;;;;;;;;44.75;37.75;;;;;;;;5122029;27;45263;-78
2022/04/10 01:46:28;;;;;;;;;43.25;38.50;;;;;;;;5122916;27;45438;-78
2022/04/10 01:48:53;;;;;;;;;43.50;40.00;;;;;;;;5104129;27;46126;-79
2022/04/10 01:51:19;;;;;;;;;45.00;39.00;;;;;;;;5122643;27;45272;-79
2022/04/10 01:53:44;;;;;;;;;37.50;35.25;;;;;;;;5122709;27;45168;-78
2022/04/10 01:56:10;;;;;;;;;44.50;39.00;;;;;;;;5122914;27;45536;-78
2022/04/10 01:58:37;;;;;;;;;45.00;39.75;;;;;;;;5103897;27;45751;-79
2022/04/10 02:01:03;;;;;;;;;42.50;36.75;;;;;;;;5103863;27;47515;-79
2022/04/10 02:03:28;;;;;;;;;31.50;29.75;;;;;;;;5122476;27;45247;-79
2022/04/10 02:05:53;;;;;;;;;39.75;35.00;;;;;;;;5104115;27;45248;-79
2022/04/10 02:08:18;;;;;;;;;35.50;34.75;;;;;;;;5122393;27;45318;-79
2022/04/10 02:10:43;;;;;;;;;42.75;39.00;;;;;;;;5122350;27;46352;-78
2022/04/10 02:13:09;;;;;;;;;43.50;38.50;;;;;;;;5122465;27;45208;-79
2022/04/10 02:15:37;;;;;;;;;43.75;40.00;;;;;;;;5121673;27;45264;-79
2022/04/10 02:18:03;;;;;;;;;46.50;38.50;;;;;;;;5122341;27;45475;-78
2022/04/10 02:20:28;;;;;;;;;46.00;40.00;;;;;;;;5122222;27;45313;-79
2022/04/10 02:22:53;;;;;;;;;28.75;26.50;;;;;;;;5103624;27;45276;-78
2022/04/10 02:25:19;;;;;;;;;50.50;41.75;;;;;;;;5122429;27;45312;-79
2022/04/10 02:27:44;;;;;;;;;42.25;38.25;;;;;;;;5122003;27;45491;-79
2022/04/10 02:30:10;;;;;;;;;42.75;38.75;;;;;;;;5103261;27;47298;-79
2022/04/10 02:32:35;;;;;;;;;43.25;38.00;;;;;;;;5103335;27;45638;-78
2022/04/10 02:35:01;;;;;;;;;39.75;38.25;;;;;;;;5121942;27;45311;-78
2022/04/10 02:37:26;;;;;;;;;42.25;37.25;;;;;;;;5103331;27;47015;-78
2022/04/10 02:39:51;;;;;;;;;41.00;37.50;;;;;;;;5103338;27;46974;-78
2022/04/10 02:42:16;;;;;;;;;42.25;38.25;;;;;;;;5103474;27;45343;-78
2022/04/10 02:44:41;;;;;;;;;37.75;36.00;;;;;;;;5121928;27;45269;-79
2022/04/10 02:47:07;;;;;;;;;37.50;36.50;;;;;;;;5121727;27;45604;-78
2022/04/10 02:49:32;;;;;;;;;36.00;36.00;;;;;;;;5121797;27;46545;-78
2022/04/10 02:51:57;;;;;;;;;34.25;33.75;;;;;;;;5121752;27;45290;-78
2022/04/10 02:54:22;;;;;;;;;37.00;34.00;;;;;;;;5102616;27;45422;-78
2022/04/10 02:56:47;;;;;;;;;42.00;37.25;;;;;;;;5121212;27;45673;-78
2022/04/10 02:59:13;;;;;;;;;37.00;37.00;;;;;;;;5102826;27;48142;-78
2022/04/10 03:01:38;;;;;;;;;36.75;35.50;;;;;;;;5103273;27;45417;-78
2022/04/10 03:04:03;;;;;;;;;42.50;38.00;;;;;;;;5103145;27;45317;-78
2022/04/10 03:06:28;;;;;;;;;36.25;33.00;;;;;;;;5102825;27;46524;-78
2022/04/10 03:08:54;;;;;;;;;38.25;36.25;;;;;;;;5121619;27;46265;-77
2022/04/10 03:11:19;;;;;;;;;36.75;36.50;;;;;;;;5102907;27;45593;-77
2022/04/10 03:13:45;;;;;;;;;41.25;36.50;;;;;;;;5121718;27;45421;-77
2022/04/10 03:16:10;;;;;;;;;39.00;37.25;;;;;;;;5120357;27;45506;-78
2022/04/10 03:18:35;;;;;;;;;42.25;36.00;;;;;;;;5102819;27;47316;-78
2022/04/10 03:21:01;;;;;;;;;44.00;37.00;;;;;;;;5121548;27;45318;-77
2022/04/10 03:23:26;;;;;;;;;42.50;38.75;;;;;;;;5121385;27;45198;-77
2022/04/10 03:25:51;;;;;;;;;44.50;39.00;;;;;;;;5121335;27;45207;-77
2022/04/10 03:28:16;;;;;;;;;38.50;37.00;;;;;;;;5102809;27;48342;-77
2022/04/10 03:30:42;;;;;;;;;37.50;37.00;;;;;;;;5102118;27;45246;-78
2022/04/10 03:33:07;;;;;;;;;44.75;39.50;;;;;;;;5102591;27;45242;-77
2022/04/10 03:35:32;;;;;;;;;45.50;41.00;;;;;;;;5102449;27;46208;-77
2022/04/10 03:37:58;;;;;;;;;41.75;37.75;;;;;;;;5102584;27;46920;-77
2022/04/10 03:40:23;;;;;;;;;41.00;37.50;;;;;;;;5102463;27;46144;-77
2022/04/10 03:42:48;;;;;;;;;40.50;35.75;;;;;;;;5102689;27;45298;-77
2022/04/10 03:45:13;;;;;;;;;40.50;37.25;;;;;;;;5120884;27;45361;-76
2022/04/10 03:47:39;;;;;;;;;52.00;39.75;;;;;;;;5102405;27;47402;-77
2022/04/10 03:50:04;;;;;;;;;45.25;39.50;;;;;;;;5102524;27;45246;-77
2022/04/10 03:52:30;;;;;;;;;50.00;41.25;;;;;;;;5120828;27;45225;-77
2022/04/10 03:54:55;;;;;;;;;49.00;42.25;;;;;;;;5120854;27;45221;-77
2022/04/10 03:57:20;;;;;;;;;42.00;37.00;;;;;;;;5102167;27;48331;-77
2022/04/10 03:59:45;;;;;;;;;46.50;40.00;;;;;;;;5120766;27;45253;-76
2022/04/10 04:02:14;;;;;;;;;46.50;40.00;;;;;;;;5102608;27;45329;-78
2022/04/10 04:04:39;;;;;;;;;43.50;39.00;;;;;;;;5120843;27;45261;-77
2022/04/10 04:07:04;;;;;;;;;42.00;38.25;;;;;;;;5122857;27;46357;-77
2022/04/10 04:09:30;;;;;;;;;40.50;37.00;;;;;;;;5124695;27;45345;-77
2022/04/10 04:11:55;;;;;;;;;42.75;38.00;;;;;;;;5124469;27;45553;-76
2022/04/10 04:14:20;;;;;;;;;45.50;40.50;;;;;;;;5105144;27;45784;-76
2022/04/10 04:16:45;;;;;;;;;46.50;39.00;;;;;;;;5104812;27;47270;-76
2022/04/10 04:19:11;;;;;;;;;38.50;37.50;;;;;;;;5124319;27;45222;-77
2022/04/10 04:21:36;;;;;;;;;39.00;36.25;;;;;;;;5124432;27;45121;-77
2022/04/10 04:24:01;;;;;;;;;47.00;39.00;;;;;;;;5124080;27;45196;-77
2022/04/10 04:26:26;;;;;;;;;39.75;38.00;;;;;;;;5105462;27;47048;-77
2022/04/10 04:28:51;;;;;;;;;34.75;32.00;;;;;;;;5123999;27;45395;-77
2022/04/10 04:31:17;;;;;;;;;33.25;33.25;;;;;;;;5124172;27;45339;-77
2022/04/10 04:33:42;;;;;;;;;36.25;31.75;;;;;;;;5105395;27;46054;-76
2022/04/10 04:36:08;;;;;;;;;32.50;31.25;;;;;;;;5123904;27;45304;-77
2022/04/10 04:38:33;;;;;;;;;32.50;30.00;;;;;;;;5105245;27;45309;-77
2022/04/10 04:40:58;;;;;;;;;33.25;33.25;;;;;;;;5124238;27;45205;-77
2022/04/10 04:43:23;;;;;;;;;36.50;34.00;;;;;;;;5105309;27;46107;-76
2022/04/10 04:45:48;;;;;;;;;26.50;26.50;;;;;;;;5123636;27;46531;-76
2022/04/10 04:48:14;;;;;;;;;28.75;28.00;;;;;;;;5123814;27;45184;-76
2022/04/10 04:50:41;;;;;;;;;28.50;26.75;;;;;;;;5105447;27;45186;-77
2022/04/10 04:53:06;;;;;;;;;32.50;28.50;;;;;;;;5123785;27;45525;-76
2022/04/10 04:55:32;;;;;;;;;23.25;22.50;;;;;;;;5123580;27;45431;-76
2022/04/10 04:57:57;;;;;;;;;27.50;27.50;;;;;;;;5104929;27;45486;-76
2022/04/10 05:00:22;;;;;;;;;28.50;27.75;;;;;;;;5105219;27;45480;-76
2022/04/10 05:02:47;;;;;;;;;27.50;27.25;;;;;;;;5123637;27;45311;-77
2022/04/10 05:05:13;;;;;;;;;31.00;26.50;;;;;;;;5105041;27;48400;-77
2022/04/10 05:07:38;;;;;;;;;28.25;28.00;;;;;;;;5104139;27;45355;-77
2022/04/10 05:10:04;;;;;;;;;30.00;29.00;;;;;;;;5104085;27;45368;-76
2022/04/10 05:12:32;;;;;;;;;34.75;32.00;;;;;;;;5123081;27;45349;-76
2022/04/10 05:14:57;;;;;;;;;28.00;27.50;;;;;;;;5122211;27;45914;-77
2022/04/10 05:17:24;;;;;;;;;31.50;30.50;;;;;;;;5103700;27;45319;-76
2022/04/10 05:19:49;;;;;;;;;34.75;30.75;;;;;;;;5123042;27;45219;-76
2022/04/10 05:22:14;;;;;;;;;34.25;33.75;;;;;;;;5123009;27;45258;-77
2022/04/10 05:24:40;;;;;;;;;38.00;36.25;;;;;;;;5098789;27;47312;-79
2022/04/10 05:27:05;;;;;;;;;44.00;40.25;;;;;;;;5143593;27;45303;-77
2022/04/10 05:29:30;;;;;;;;;41.75;38.50;;;;;;;;5144005;27;45301;-77
2022/04/10 05:31:55;;;;;;;;;49.75;42.75;;;;;;;;5143791;27;45610;-77
2022/04/10 05:34:21;;;;;;;;;56.00;46.75;;;;;;;;5143828;27;46166;-78
2022/04/10 05:36:46;;;;;;;;;57.25;47.75;;;;;;;;5124889;27;45401;-77
2022/04/10 05:39:11;;;;;;;;;54.00;46.50;;;;;;;;5143998;27;45442;-78
2022/04/10 05:41:36;;;;;;;;;53.25;43.00;;;;;;;;5125138;27;46032;-78
2022/04/10 05:44:01;;;;;;;;;55.50;46.75;;;;;;;;5124647;27;47289;-78
2022/04/10 05:46:27;;;;;;;;;46.75;43.00;;;;;;;;5143712;27;45356;-77
2022/04/10 05:48:52;;;;;;;;;47.00;40.75;;;;;;;;5143962;27;45199;-77
2022/04/10 05:51:17;;;;;;;;;49.50;43.75;;;;;;;;5143495;27;45454;-78
2022/04/10 05:53:42;;;;;;;;;40.50;38.50;;;;;;;;5143495;27;45408;-77
2022/04/10 05:56:07;;;;;;;;;45.50;37.25;;;;;;;;5143508;27;45443;-77
2022/04/10 05:58:33;;;;;;;;;39.00;34.25;;;;;;;;5126181;27;45303;-77
2022/04/10 06:00:58;;;;;;;;;38.00;37.25;;;;;;;;5103955;27;46306;-78
2022/04/10 06:03:23;;;;;;;;;48.75;41.50;;;;;;;;5122657;27;45380;-77
2022/04/10 06:05:48;;;;;;;;;64.00;51.75;;;;;;;;5112547;27;46091;-76
2022/04/10 06:08:14;;;;;;;;;42.75;40.00;;;;;;;;5123799;27;45356;-79
2022/04/10 06:10:39;;;;;;;;;40.50;35.75;;;;;;;;5121685;27;45479;-78
2022/04/10 06:13:10;;;;;;;;;34.75;33.00;;;;;;;;5121933;27;46520;-78
2022/04/10 06:15:35;;;;;;;;;35.50;31.25;;;;;;;;5119572;27;45469;-78
2022/04/10 06:18:00;;;;;;;;;29.75;28.25;;;;;;;;5103826;27;45486;-78
2022/04/10 06:20:26;;;;;;;;;37.50;34.25;;;;;;;;5103920;27;47254;-79
2022/04/10 06:22:51;;;;;;;;;33.50;31.00;;;;;;;;5122039;27;45343;-78
2022/04/10 06:25:17;;;;;;;;;38.00;33.50;;;;;;;;5103825;27;45350;-77
2022/04/10 06:27:42;;;;;;;;;33.75;33.00;;;;;;;;5122436;27;45276;-77
2022/04/10 06:30:07;;;;;;;;;40.50;32.75;;;;;;;;5121938;27;45300;-77
2022/04/10 06:32:32;;;;;;;;;38.00;37.00;;;;;;;;5120061;27;45421;-77
2022/04/10 06:34:58;;;;;;;;;35.25;35.25;;;;;;;;5139782;27;45320;-74
2022/04/10 06:37:23;;;;;;;;;36.50;34.25;;;;;;;;5128823;27;45373;-76
2022/04/10 06:39:48;;;;;;;;;29.75;29.75;;;;;;;;5145099;27;45377;-75
2022/04/10 06:42:13;;;;;;;;;33.25;33.25;;;;;;;;5153028;27;45360;-76
2022/04/10 06:44:40;;;;;;;;;34.00;32.75;;;;;;;;5114347;27;46159;-76
2022/04/10 06:47:05;;;;;;;;;37.75;32.25;;;;;;;;5103553;27;45389;-76
2022/04/10 06:49:31;;;;;;;;;38.75;35.50;;;;;;;;5121894;27;45492;-77
2022/04/10 06:51:56;;;;;;;;;35.75;33.75;;;;;;;;5121749;27;45268;-79
2022/04/10 06:54:21;;;;;;;;;40.50;36.00;;;;;;;;5124074;27;45348;-76
2022/04/10 06:56:46;;;;;;;;;40.25;38.75;;;;;;;;5103200;27;45294;-77
2022/04/10 06:59:12;;;;;;;;;42.00;39.25;;;;;;;;5123432;27;45680;-75
2022/04/10 07:01:38;;;;;;;;;42.25;37.50;;;;;;;;5104127;27;48091;-77
2022/04/10 07:04:03;;;;;;;;;47.50;39.00;;;;;;;;5121974;27;45232;-77
2022/04/10 07:06:28;;;;;;;;;42.50;39.50;;;;;;;;5135852;27;45234;-78
2022/04/10 07:08:54;;;;;;;;;38.50;35.00;;;;;;;;5113920;27;46334;-76
2022/04/10 07:11:19;;;;;;;;;39.75;36.75;;;;;;;;5102755;27;47126;-77
2022/04/10 07:13:44;;;;;;;;;44.75;38.75;;;;;;;;5103534;27;45889;-75
2022/04/10 07:16:10;;;;;;;;;43.75;39.00;;;;;;;;5121403;27;45229;-75
2022/04/10 07:18:35;;;;;;;;;45.50;42.00;;;;;;;;5123177;27;45195;-80
2022/04/10 07:21:00;;;;;;;;;55.50;44.00;;;;;;;;5102954;27;47204;-80
2022/04/10 07:23:45;;;;;;;;;49.75;42.25;;;;;;;;5102941;27;45963;-79
2022/04/10 07:26:14;;;;;;;;;46.75;40.50;;;;;;;;5121083;27;45305;-80
2022/04/10 07:28:40;;;;;;;;;45.75;41.25;;;;;;;;5102282;27;45402;-80
2022/04/10 07:31:08;;;;;;;;;45.25;39.75;;;;;;;;5119380;27;46116;-80
2022/04/10 07:33:34;;;;;;;;;46.50;41.50;;;;;;;;5121162;27;45328;-80
2022/04/10 07:35:59;;;;;;;;;52.00;42.50;;;;;;;;5117277;27;45536;-80
2022/04/10 07:38:25;;;;;;;;;54.25;44.50;;;;;;;;5117650;27;45411;-81
2022/04/10 07:40:50;;;;;;;;;53.75;43.25;;;;;;;;5118269;27;45805;-82
2022/04/10 07:43:15;;;;;;;;;50.00;40.50;;;;;;;;5119668;27;45774;-81
2022/04/10 07:48:24;;;;;;;;;54.50;44.50;;;;;;;;5116926;27;45250;-81
2022/04/10 07:50:50;;;;;;;;;55.00;46.25;;;;;;;;5121003;27;45396;-81
2022/04/10 07:53:15;;;;;;;;;44.50;39.75;;;;;;;;5125285;27;45266;-81
2022/04/10 07:55:41;;;;;;;;;46.25;40.00;;;;;;;;5109153;27;45235;-81
2022/04/10 07:58:06;;;;;;;;;44.25;38.00;;;;;;;;5125145;27;45333;-81
2022/04/10 08:00:32;;;;;;;;;46.50;38.25;;;;;;;;5124483;27;45362;-81
2022/04/10 08:02:58;;;;;;;;;42.00;37.00;;;;;;;;5121334;27;45351;-81
2022/04/10 08:05:24;;;;;;;;;30.25;30.25;;;;;;;;5102898;27;45486;-80
2022/04/10 08:07:49;;;;;;;;;28.00;25.00;;;;;;;;5121269;27;45423;-83
2022/04/10 08:10:14;;;;;;;;;23.00;19.50;;;;;;;;5102282;27;48085;-81
2022/04/10 08:12:40;;;;;;;;;8.33;8.33;;;;;;;;5102267;27;45337;-79
2022/04/10 08:15:06;;;;;;;;;4.33;4.33;;;;;;;;5121529;27;45385;-82
2022/04/10 08:17:31;;;;;;;;;4.33;4.00;;;;;;;;5102943;27;46146;-75
2022/04/10 08:19:57;;;;;;;;;5.33;4.33;;;;;;;;5121714;27;45341;-77
2022/04/10 08:22:23;;;;;;;;;3.33;3.33;;;;;;;;5102665;27;45867;-80
2022/04/10 08:24:48;;;;;;;;;4.00;4.00;;;;;;;;5121005;27;45224;-79
2022/04/10 08:27:13;;;;;;;;;3.00;3.00;;;;;;;;5121173;27;45454;-83
2022/04/10 08:29:39;;;;;;;;;4.00;3.67;;;;;;;;5102661;27;46584;-81
2022/04/10 08:32:04;;;;;;;;;1.33;1.33;;;;;;;;5120118;27;45410;-81
2022/04/10 08:34:29;;;;;;;;;3.00;3.00;;;;;;;;5104559;27;45398;-83
2022/04/10 08:36:54;;;;;;;;;1.67;1.67;;;;;;;;5142546;27;45453;-82
2022/04/10 08:39:20;;;;;;;;;2.00;2.00;;;;;;;;5139102;27;45501;-83
2022/04/10 08:41:46;;;;;;;;;2.00;2.00;;;;;;;;5139093;27;45381;-83
2022/04/10 08:44:12;;;;;;;;;2.67;2.67;;;;;;;;5140134;27;45541;-80
2022/04/10 08:46:39;;;;;;;;;1.00;1.00;;;;;;;;5141417;27;45554;-86
2022/04/10 08:49:04;;;;;;;;;3.00;2.00;;;;;;;;5124894;27;47366;-80
2022/04/10 08:51:29;;;;;;;;;3.00;3.00;;;;;;;;5123104;27;45420;-81
2022/04/10 08:53:55;;;;;;;;;4.00;3.00;;;;;;;;5125997;27;45311;-79
2022/04/10 08:56:22;;;;;;;;;4.00;4.00;;;;;;;;5142684;27;45439;-82
2022/04/10 08:58:47;;;;;;;;;5.00;3.67;;;;;;;;5145167;27;46383;-81
2022/04/10 09:01:16;;;;;;;;;2.00;2.00;;;;;;;;5144556;27;45224;-81
2022/04/10 09:03:41;;;;;;;;;5.00;4.00;;;;;;;;5126489;27;45481;-79
2022/04/10 09:06:10;;;;;;;;;2.00;2.00;;;;;;;;5124647;27;46871;-80
2022/04/10 09:08:35;;;;;;;;;3.00;3.00;;;;;;;;5141499;27;45329;-81
2022/04/10 09:11:02;;;;;;;;;4.33;3.33;;;;;;;;5125569;27;45298;-80
2022/04/10 09:13:33;;;;;;;;;2.00;2.00;;;;;;;;5144510;27;45409;-79
2022/04/10 09:16:12;;;;;;;;;2.67;1.67;;;;;;;;5131834;27;45330;-82
2022/04/10 09:18:44;;;;;;;;;6.33;3.00;;;;;;;;5123303;27;45613;-80
2022/04/10 09:21:09;;;;;;;;;2.67;2.67;;;;;;;;5104933;27;45319;-80
2022/04/10 09:23:35;;;;;;;;;3.00;3.00;;;;;;;;5124506;27;45382;-81
2022/04/10 09:26:00;;;;;;;;;2.33;2.33;;;;;;;;5124575;27;45938;-80
2022/04/10 09:28:42;;;;;;;;;4.00;2.33;;;;;;;;5124555;27;45439;-80
2022/04/10 09:31:26;;;;;;;;;2.00;2.00;;;;;;;;5104757;27;45357;-82
2022/04/10 09:33:52;;;;;;;;;4.00;4.00;;;;;;;;5123889;27;45287;-80
2022/04/10 09:36:29;;;;;;;;;4.00;3.67;;;;;;;;5123818;27;45471;-80
2022/04/10 09:38:54;;;;;;;;;4.00;4.00;;;;;;;;5124552;27;46195;-81
2022/04/10 09:41:19;;;;;;;;;2.67;2.67;;;;;;;;5123576;27;45279;-79
2022/04/10 09:43:45;;;;;;;;;4.00;4.00;;;;;;;;5123945;27;45359;-80
2022/04/10 09:46:13;;;;;;;;;5.00;4.00;;;;;;;;5123862;27;45390;-81
2022/04/10 09:48:38;;;;;;;;;5.33;5.33;;;;;;;;5123390;27;45384;-81
2022/04/10 09:51:04;;;;;;;;;5.00;4.00;;;;;;;;5115715;27;45349;-81
2022/04/10 09:53:30;;;;;;;;;4.00;4.00;;;;;;;;5091931;27;45465;-81
2022/04/10 09:56:00;;;;;;;;;4.00;4.00;;;;;;;;5111603;27;45472;-81
2022/04/10 09:58:26;;;;;;;;;7.00;5.33;;;;;;;;5091867;27;47555;-80
2022/04/10 10:00:54;;;;;;;;;5.33;4.33;;;;;;;;5110214;27;45298;-80
2022/04/10 10:03:20;;;;;;;;;4.00;4.00;;;;;;;;5093600;27;45378;-80
2022/04/10 10:05:46;;;;;;;;;3.67;3.00;;;;;;;;5113018;27;45490;-83
2022/04/10 10:08:11;;;;;;;;;4.00;4.00;;;;;;;;5120029;27;46350;-81
2022/04/10 10:10:37;;;;;;;;;3.67;3.67;;;;;;;;5122619;27;45243;-82
2022/04/10 10:13:07;;;;;;;;;4.00;4.00;;;;;;;;5104188;27;45601;-81
2022/04/10 10:15:33;;;;;;;;;3.67;3.67;;;;;;;;5103555;27;46955;-83
2022/04/10 10:18:00;;;;;;;;;3.00;3.00;;;;;;;;5122115;27;46145;-83
2022/04/10 10:20:26;;;;;;;;;8.00;6.67;;;;;;;;5122827;27;45226;-81
2022/04/10 10:22:51;;;;;;;;;5.33;4.00;;;;;;;;5104038;27;45503;-79
2022/04/10 10:25:20;;;;;;;;;4.33;2.33;;;;;;;;5103777;27;46137;-80
2022/04/10 10:27:48;;;;;;;;;2.33;2.33;;;;;;;;5122859;27;46001;-81
2022/04/10 10:30:33;;;;;;;;;3.33;3.33;;;;;;;;5121930;27;45206;-78
2022/04/10 10:33:11;;;;;;;;;5.33;5.00;;;;;;;;5121625;27;45434;-82
2022/04/10 10:35:48;;;;;;;;;5.00;3.00;;;;;;;;5104209;27;46337;-81
2022/04/10 10:38:21;;;;;;;;;4.33;4.33;;;;;;;;5122786;27;46484;-81
2022/04/10 10:40:47;;;;;;;;;3.00;3.00;;;;;;;;5105369;27;45343;-81
2022/04/10 10:43:17;;;;;;;;;2.00;2.00;;;;;;;;5105619;27;45498;-81
2022/04/10 10:45:42;;;;;;;;;5.00;3.00;;;;;;;;5104571;27;46086;-82
2022/04/10 10:48:23;;;;;;;;;4.00;4.00;;;;;;;;5122746;27;45197;-84
2022/04/10 10:50:53;;;;;;;;;4.00;4.00;;;;;;;;5103741;27;45326;-81
2022/04/10 10:53:38;;;;;;;;;2.33;2.33;;;;;;;;5121903;27;45690;-82
2022/04/10 10:56:04;;;;;;;;;2.67;2.67;;;;;;;;5121522;27;45459;-84
2022/04/10 10:58:31;;;;;;;;;5.00;5.00;;;;;;;;5121634;27;45584;-83
2022/04/10 11:01:02;;;;;;;;;4.33;4.33;;;;;;;;5121594;27;45434;-83
2022/04/10 11:03:29;;;;;;;;;3.00;3.00;;;;;;;;5100553;27;45365;-83
2022/04/10 11:06:03;;;;;;;;;6.00;6.00;;;;;;;;5118659;27;45380;-78
2022/04/10 11:08:37;;;;;;;;;3.00;3.00;;;;;;;;5108720;27;46391;-81
2022/04/10 11:11:03;;;;;;;;;6.00;5.00;;;;;;;;5110741;27;45361;-80
2022/04/10 11:13:38;;;;;;;;;4.67;4.67;;;;;;;;5096593;27;45431;-81
2022/04/10 11:16:10;;;;;;;;;4.00;4.00;;;;;;;;5106895;27;45449;-81
2022/04/10 11:18:40;;;;;;;;;4.00;4.00;;;;;;;;5114719;27;45567;-80
2022/04/10 11:21:08;;;;;;;;;5.33;5.33;;;;;;;;5122685;27;45152;-79
2022/04/10 11:23:39;;;;;;;;;6.33;6.33;;;;;;;;5117496;27;45317;-76
2022/04/10 11:26:09;;;;;;;;;7.00;7.00;;;;;;;;5105820;27;45361;-79
2022/04/10 11:28:55;;;;;;;;;5.00;4.33;;;;;;;;5114723;27;45619;-78
2022/04/10 11:31:40;;;;;;;;;5.00;5.00;;;;;;;;5111390;27;45396;-79
2022/04/10 11:34:28;;;;;;;;;6.00;5.67;;;;;;;;5115395;27;45750;-79
2022/04/10 11:36:54;;;;;;;;;7.00;5.33;;;;;;;;5106512;27;46154;-79
2022/04/10 11:39:24;;;;;;;;;5.00;5.00;;;;;;;;5107654;27;45375;-80
2022/04/10 11:41:50;;;;;;;;;5.00;5.00;;;;;;;;5118309;27;45493;-79
2022/04/10 11:44:17;;;;;;;;;5.00;5.00;;;;;;;;5119549;27;45772;-79
2022/04/10 11:46:44;;;;;;;;;4.33;4.00;;;;;;;;5121228;27;45380;-79
2022/04/10 11:49:09;;;;;;;;;4.00;4.00;;;;;;;;5120004;27;46222;-79
2022/04/10 11:51:54;;;;;;;;;5.00;5.00;;;;;;;;5123761;27;45230;-79
2022/04/10 11:54:23;;;;;;;;;3.00;3.00;;;;;;;;5124797;27;45341;-78
2022/04/10 11:56:48;;;;;;;;;3.67;3.33;;;;;;;;5119564;27;45374;-79
2022/04/10 11:59:14;;;;;;;;;3.00;3.00;;;;;;;;5102190;27;47102;-78
2022/04/10 12:01:41;;;;;;;;;4.67;3.00;;;;;;;;5123046;27;45519;-79
2022/04/10 12:04:06;;;;;;;;;3.33;3.33;;;;;;;;5120889;27;45362;-78
2022/04/10 12:06:31;;;;;;;;;2.67;2.67;;;;;;;;5085747;27;47517;-79
2022/04/10 12:08:57;;;;;;;;;4.00;3.00;;;;;;;;5124742;27;46214;-78
2022/04/10 12:11:22;;;;;;;;;4.67;4.33;;;;;;;;5122275;27;45269;-78
2022/04/10 12:13:48;;;;;;;;;3.00;3.00;;;;;;;;5121187;27;45537;-79
2022/04/10 12:16:16;;;;;;;;;5.00;3.33;;;;;;;;5121386;27;45615;-78
2022/04/10 12:19:38;;;;;;;;;3.00;3.00;;;;;;;;5091886;27;45580;-78
2022/04/10 12:22:12;;;;;;;;;4.33;4.33;;;;;;;;5028686;28;45378;-79
2022/04/10 12:28:04;;;;;;;;;3.67;3.67;;;;;;;;5056037;28;45577;-78
2022/04/10 12:30:51;;;;;;;;;4.33;4.00;;;;;;;;5120308;27;46385;-78
2022/04/10 12:36:28;;;;;;;;;5.00;4.00;;;;;;;;5117934;27;45448;-78
2022/04/10 12:38:54;;;;;;;;;3.67;3.67;;;;;;;;5104436;27;45201;-78
2022/04/10 12:41:31;;;;;;;;;4.00;4.00;;;;;;;;5084254;27;47049;-78
2022/04/10 12:44:03;;;;;;;;;6.00;5.00;;;;;;;;5102643;27;45231;-77
2022/04/10 12:46:34;;;;;;;;;4.33;3.67;;;;;;;;5110507;27;45492;-78
2022/04/10 12:49:12;;;;;;;;;2.67;2.67;;;;;;;;5111668;27;45401;-78
2022/04/10 12:51:59;;;;;;;;;6.00;5.00;;;;;;;;5116557;27;46500;-78
2022/04/10 12:54:44;;;;;;;;;3.00;3.00;;;;;;;;5106108;27;45307;-78
2022/04/10 12:57:13;;;;;;;;;4.67;4.00;;;;;;;;5112087;27;45350;-78
2022/04/10 12:59:40;;;;;;;;;2.67;1.33;;;;;;;;5093548;27;46598;-78
2022/04/10 13:02:24;;;;;;;;;3.33;3.33;;;;;;;;5110672;27;45506;-79
2022/04/10 13:05:10;;;;;;;;;3.00;3.00;;;;;;;;5093961;27;45507;-78
2022/04/10 13:07:35;;;;;;;;;3.33;3.33;;;;;;;;5104001;27;45426;-78
2022/04/10 13:10:00;;;;;;;;;3.00;3.00;;;;;;;;5117786;27;45349;-78
2022/04/10 13:12:27;;;;;;;;;4.00;3.00;;;;;;;;5117731;27;45394;-78
2022/04/10 13:14:52;;;;;;;;;3.00;3.00;;;;;;;;5109112;27;45374;-77
2022/04/10 13:17:19;;;;;;;;;3.67;3.67;;;;;;;;5106606;27;45449;-78
2022/04/10 13:19:44;;;;;;;;;2.67;2.67;;;;;;;;5082458;27;46029;-79
2022/04/10 13:22:09;;;;;;;;;4.00;4.00;;;;;;;;5086252;27;45821;-78
2022/04/10 13:24:34;;;;;;;;;2.33;2.33;;;;;;;;5115474;27;45407;-79
2022/04/10 13:27:00;;;;;;;;;3.67;3.67;;;;;;;;5107076;27;45241;-79
2022/04/10 13:29:25;;;;;;;;;4.33;4.33;;;;;;;;5086906;27;46894;-79
2022/04/10 13:31:51;;;;;;;;;3.00;2.00;;;;;;;;5122697;27;45539;-78
2022/04/10 13:34:16;;;;;;;;;7.00;3.33;;;;;;;;5099866;27;45613;-80
2022/04/10 13:36:41;;;;;;;;;4.00;4.00;;;;;;;;5114965;27;45342;-78
2022/04/10 13:39:06;;;;;;;;;3.00;3.00;;;;;;;;5111981;27;45452;-78
2022/04/10 13:41:32;;;;;;;;;3.33;3.33;;;;;;;;5120960;27;46315;-78
2022/04/10 13:43:59;;;;;;;;;2.33;2.33;;;;;;;;5114560;27;45334;-78
2022/04/10 13:46:24;;;;;;;;;3.67;3.67;;;;;;;;5119179;27;45491;-78
2022/04/10 13:48:49;;;;;;;;;5.00;5.00;;;;;;;;5105690;27;45428;-78
2022/04/10 13:51:15;;;;;;;;;2.67;2.67;;;;;;;;5085179;27;47065;-78
2022/04/10 13:53:40;;;;;;;;;2.00;2.00;;;;;;;;5103756;27;45358;-78
2022/04/10 13:56:11;;;;;;;;;3.67;3.00;;;;;;;;5101018;27;45295;-79
2022/04/10 13:58:36;;;;;;;;;4.33;4.00;;;;;;;;5082092;27;45468;-78
2022/04/10 14:01:02;;;;;;;;;4.33;3.33;;;;;;;;5115759;27;45607;-78
2022/04/10 14:03:28;;;;;;;;;4.00;4.00;;;;;;;;5121183;27;45531;-79
2022/04/10 14:05:53;;;;;;;;;3.67;3.00;;;;;;;;5103024;27;45372;-78
2022/04/10 14:08:22;;;;;;;;;3.33;3.33;;;;;;;;5098454;27;46134;-80
2022/04/10 14:10:47;;;;;;;;;8.33;6.33;;;;;;;;5119141;27;46286;-78
2022/04/10 14:13:12;;;;;;;;;5.33;5.33;;;;;;;;5102948;27;45431;-78
2022/04/10 14:15:37;;;;;;;;;7.00;7.00;;;;;;;;5112659;27;45223;-78
2022/04/10 14:18:03;;;;;;;;;4.00;4.00;;;;;;;;5113384;27;45538;-78
2022/04/10 14:20:31;;;;;;;;;5.33;5.33;;;;;;;;5105529;27;46207;-78
2022/04/10 14:22:56;;;;;;;;;8.33;5.00;;;;;;;;5112596;27;45277;-77
2022/04/10 14:25:21;;;;;;;;;6.00;6.00;;;;;;;;5103416;27;45360;-77
2022/04/10 14:27:47;;;;;;;;;6.67;6.67;;;;;;;;5101777;27;45485;-78
2022/04/10 14:30:12;;;;;;;;;3.67;3.67;;;;;;;;5089546;27;48276;-78
2022/04/10 14:32:39;;;;;;;;;6.00;5.67;;;;;;;;5097031;27;45608;-79
2022/04/10 14:35:04;;;;;;;;;4.67;4.67;;;;;;;;5121850;27;45474;-79
2022/04/10 14:37:29;;;;;;;;;6.67;5.33;;;;;;;;5121403;27;45491;-78